Moy, United Kingdom
Current Conditions -  °F | °C
As of 11:20 PM on Sunday 21 Dec 2014 (Local Time) from EGAA Reporting Station
Light Rain Light Rain  
Wind Chill: 50°   Ceiling: 700
Heat Index: 50°   Visibility: 6mi
Dew Point: 50°   Wind: 16mph
Humidity: 100%   Direction: 220°SW
Pressure: 29.77"   Gusts: NA
Location:  54.45°N, 6.67°W
Report Text: EGAA 212320Z 22014KT 9999 -RA FEW003 BKN007 BKN010 10/10 Q1008
Loading
Personal Weather Stations






























Interactive Weather Map New forecast layout! Learn more

10-Day Weather Forecast

Advertisements
Track Severe Weather on mobile